Time;durP1;ratioP1;P1;durP2;ratioP2;P2;SDS_P1;SDS_P2;PMS_P1;PMS_P2;Temp;Humidity;BMP_temperature;BMP_pressure;BME280_temperature;BME280_humidity;BME280_pressure;Samples;Min_cycle;Max_cycle;Signal;HPM_P1;HPM_P2
2021/03/31 00:00:37;;;;;;;10.67;5.30;;;12.50;11.70;;;;;;5055470;28;20389;-76
2021/03/31 00:03:08;;;;;;;8.68;4.90;;;12.40;11.90;;;;;;5017775;28;20754;-78
2021/03/31 00:05:34;;;;;;;8.80;4.80;;;12.40;13.20;;;;;;5036897;28;20430;-78
2021/03/31 00:07:59;;;;;;;8.93;4.70;;;12.40;12.20;;;;;;5041187;28;20387;-79
2021/03/31 00:10:32;;;;;;;12.40;6.00;;;12.50;12.20;;;;;;5042566;28;20394;-79
2021/03/31 00:12:57;;;;;;;7.70;5.20;;;12.50;12.70;;;;;;5040787;28;20387;-78
2021/03/31 00:15:23;;;;;;;10.30;5.30;;;12.50;12.30;;;;;;5047432;28;20468;-79
2021/03/31 00:17:49;;;;;;;8.20;5.30;;;12.50;12.50;;;;;;5049653;28;20446;-78
2021/03/31 00:20:16;;;;;;;11.00;5.00;;;12.50;12.50;;;;;;5051444;28;20391;-79
2021/03/31 00:22:42;;;;;;;10.85;5.20;;;12.50;12.70;;;;;;5049755;28;20395;-76
2021/03/31 00:25:09;;;;;;;8.05;4.95;;;12.40;13.10;;;;;;5035345;28;20439;-78
2021/03/31 00:27:35;;;;;;;11.00;5.35;;;12.40;13.00;;;;;;5023352;28;20431;-78
2021/03/31 00:30:01;;;;;;;10.52;4.82;;;12.40;13.10;;;;;;5019502;28;20397;-80
2021/03/31 00:32:26;;;;;;;9.77;5.32;;;12.40;12.70;;;;;;5037625;28;20395;-79
2021/03/31 00:34:52;;;;;;;14.57;6.10;;;12.50;12.80;;;;;;5041263;28;20776;-78
2021/03/31 00:37:17;;;;;;;7.85;5.63;;;12.60;12.80;;;;;;5044486;28;20391;-79
2021/03/31 00:39:43;;;;;;;10.20;5.78;;;12.50;13.80;;;;;;5040071;28;20447;-78
2021/03/31 00:42:09;;;;;;;13.30;5.90;;;12.50;13.40;;;;;;5036254;28;20402;-77
2021/03/31 00:44:34;;;;;;;11.33;5.57;;;12.50;13.10;;;;;;5037694;28;20417;-77
2021/03/31 00:47:05;;;;;;;10.00;5.90;;;12.50;13.40;;;;;;5042744;28;20418;-76
2021/03/31 00:49:31;;;;;;;8.77;5.07;;;12.50;12.70;;;;;;5042535;28;20379;-77
2021/03/31 00:51:58;;;;;;;8.80;5.85;;;12.50;12.50;;;;;;5040242;28;20407;-77
2021/03/31 00:54:23;;;;;;;11.40;5.38;;;12.50;12.60;;;;;;5036973;28;20391;-76
2021/03/31 00:56:49;;;;;;;8.90;5.15;;;12.60;11.80;;;;;;5042177;28;20383;-77
2021/03/31 00:59:15;;;;;;;10.10;6.00;;;12.60;11.80;;;;;;5061443;28;20394;-77
2021/03/31 01:01:40;;;;;;;9.77;5.28;;;12.50;12.80;;;;;;5056544;28;20395;-77
2021/03/31 01:04:06;;;;;;;8.30;4.88;;;12.60;12.10;;;;;;5046064;28;20387;-77
2021/03/31 01:06:31;;;;;;;8.73;4.70;;;12.60;11.80;;;;;;5044763;28;20415;-77
2021/03/31 01:08:57;;;;;;;14.38;5.53;;;12.50;11.70;;;;;;5030103;28;20430;-77
2021/03/31 01:11:36;;;;;;;6.83;5.10;;;12.50;12.50;;;;;;5042846;28;20474;-76
2021/03/31 01:14:11;;;;;;;8.00;4.73;;;12.40;12.10;;;;;;5047098;28;20394;-77
2021/03/31 01:16:50;;;;;;;8.50;5.05;;;12.30;12.60;;;;;;5046024;28;20406;-77
2021/03/31 01:19:45;;;;;;;10.52;5.00;;;12.30;12.90;;;;;;5046688;28;20383;-77
2021/03/31 01:22:36;;;;;;;10.20;5.28;;;12.30;12.80;;;;;;5034255;28;20415;-78
2021/03/31 01:25:14;;;;;;;11.25;5.38;;;12.30;12.60;;;;;;5041355;28;20395;-77
2021/03/31 01:28:05;;;;;;;9.57;5.65;;;12.30;12.60;;;;;;5042912;28;20391;-77
2021/03/31 01:30:40;;;;;;;10.13;5.18;;;12.20;13.00;;;;;;5034405;28;20383;-78
2021/03/31 01:33:42;;;;;;;8.27;5.50;;;12.10;13.40;;;;;;5033437;28;20432;-77
2021/03/31 01:36:11;;;;;;;9.55;5.20;;;12.10;13.20;;;;;;5034525;28;20389;-78
2021/03/31 01:38:40;;;;;;;10.20;5.30;;;12.10;13.10;;;;;;5033746;28;20386;-76
2021/03/31 01:41:07;;;;;;;9.10;5.55;;;12.10;13.30;;;;;;5033474;28;20478;-76
2021/03/31 01:43:33;;;;;;;10.57;5.65;;;12.00;13.70;;;;;;5028665;28;20401;-76
2021/03/31 01:46:00;;;;;;;9.32;5.10;;;11.90;14.10;;;;;;5014715;28;20479;-76
2021/03/31 01:48:30;;;;;;;10.98;5.60;;;11.90;14.20;;;;;;5012635;28;20451;-75
2021/03/31 01:51:06;;;;;;;8.82;5.90;;;11.90;14.30;;;;;;5014603;28;20439;-78
2021/03/31 01:53:33;;;;;;;10.23;5.05;;;11.90;14.00;;;;;;5034378;28;20455;-78
2021/03/31 01:56:00;;;;;;;13.27;5.45;;;11.80;14.20;;;;;;5033941;28;20396;-77
2021/03/31 01:58:27;;;;;;;9.10;6.10;;;11.80;14.40;;;;;;5043876;28;20826;-77
2021/03/31 02:00:53;;;;;;;11.55;5.40;;;11.90;14.20;;;;;;5054979;28;20400;-77
2021/03/31 02:03:22;;;;;;;11.00;5.60;;;11.90;14.60;;;;;;5017447;28;20400;-78
2021/03/31 02:05:48;;;;;;;9.50;5.55;;;11.90;14.10;;;;;;5032974;28;20469;-77
2021/03/31 02:08:14;;;;;;;10.05;5.65;;;11.90;14.20;;;;;;5034383;28;20444;-77
2021/03/31 02:10:43;;;;;;;9.57;5.53;;;11.90;14.00;;;;;;5033840;28;20388;-77
2021/03/31 02:13:11;;;;;;;11.10;5.85;;;11.80;14.30;;;;;;5034260;28;20391;-77
2021/03/31 02:15:38;;;;;;;13.98;6.07;;;11.80;14.20;;;;;;5039794;28;20413;-79
2021/03/31 02:18:11;;;;;;;9.65;5.75;;;11.70;14.60;;;;;;5040427;28;20423;-76
2021/03/31 02:20:36;;;;;;;13.80;5.90;;;11.70;14.90;;;;;;5037825;28;20383;-77
2021/03/31 02:23:04;;;;;;;9.10;5.40;;;11.60;14.90;;;;;;5034867;28;20485;-79
2021/03/31 02:25:30;;;;;;;8.10;5.90;;;11.60;15.20;;;;;;5034166;28;20413;-77
2021/03/31 02:27:55;;;;;;;8.38;5.40;;;11.60;15.10;;;;;;5032878;28;20410;-77
2021/03/31 02:30:24;;;;;;;9.55;5.75;;;11.60;15.10;;;;;;5033974;28;20446;-78
2021/03/31 02:32:52;;;;;;;9.57;6.20;;;11.60;15.40;;;;;;5033537;28;20919;-76
2021/03/31 02:35:21;;;;;;;10.80;6.63;;;11.60;15.40;;;;;;5031662;28;20918;-77
2021/03/31 02:37:52;;;;;;;8.65;6.18;;;11.60;15.50;;;;;;5020176;28;20393;-77
2021/03/31 02:40:20;;;;;;;18.77;6.60;;;11.50;15.40;;;;;;5019709;28;20469;-76
2021/03/31 02:42:47;;;;;;;13.07;6.50;;;11.40;16.00;;;;;;5039503;28;20402;-74
2021/03/31 02:45:15;;;;;;;13.60;6.80;;;11.30;16.30;;;;;;5046783;28;20427;-77
2021/03/31 02:47:42;;;;;;;14.57;6.53;;;11.30;16.30;;;;;;5041837;28;20388;-79
2021/03/31 02:50:11;;;;;;;13.23;6.43;;;11.30;16.60;;;;;;5040444;28;20419;-78
2021/03/31 02:52:38;;;;;;;14.52;6.35;;;11.30;16.80;;;;;;5053248;28;20402;-78
2021/03/31 02:55:09;;;;;;;12.93;7.20;;;11.30;15.80;;;;;;5065588;28;20398;-76
2021/03/31 02:57:36;;;;;;;12.02;6.60;;;11.30;16.00;;;;;;5050658;28;20428;-76
2021/03/31 03:00:05;;;;;;;15.00;7.30;;;11.40;15.60;;;;;;5032761;28;20387;-78
2021/03/31 03:02:31;;;;;;;14.38;6.78;;;11.40;16.30;;;;;;5057389;28;20474;-76
2021/03/31 03:04:57;;;;;;;10.45;6.40;;;11.40;16.40;;;;;;5032844;28;20402;-78
2021/03/31 03:07:23;;;;;;;14.05;7.28;;;11.40;15.90;;;;;;5032807;28;20444;-76
2021/03/31 03:09:49;;;;;;;16.58;7.72;;;11.50;15.80;;;;;;5030723;28;20399;-76
2021/03/31 03:12:17;;;;;;;12.18;7.10;;;11.40;16.20;;;;;;5017575;28;20447;-78
2021/03/31 03:14:47;;;;;;;16.33;7.30;;;11.40;16.10;;;;;;5015484;28;20765;-76
2021/03/31 03:17:12;;;;;;;11.35;7.30;;;11.30;16.60;;;;;;5041181;28;20495;-75
2021/03/31 03:19:38;;;;;;;11.35;6.90;;;11.40;16.40;;;;;;5045335;28;20457;-76
2021/03/31 03:22:05;;;;;;;16.40;7.50;;;11.40;15.70;;;;;;5019388;28;20477;-76
2021/03/31 03:24:33;;;;;;;13.77;7.20;;;11.40;15.70;;;;;;5031688;28;20394;-75
2021/03/31 03:26:59;;;;;;;12.90;7.60;;;11.40;16.20;;;;;;5031774;28;20390;-77
2021/03/31 03:29:26;;;;;;;20.75;7.60;;;11.40;15.80;;;;;;5031304;28;20429;-76
2021/03/31 03:31:53;;;;;;;16.40;7.10;;;11.40;16.20;;;;;;5029712;28;20807;-75
2021/03/31 03:34:20;;;;;;;13.80;7.20;;;11.40;15.80;;;;;;5031485;28;20880;-77
2021/03/31 03:36:46;;;;;;;11.55;7.35;;;11.30;16.30;;;;;;5031673;28;20391;-77
2021/03/31 03:39:12;;;;;;;10.85;7.28;;;11.20;16.30;;;;;;5031382;28;20402;-77
2021/03/31 03:41:37;;;;;;;14.35;7.65;;;11.20;16.40;;;;;;5029767;28;20398;-77
2021/03/31 03:44:04;;;;;;;12.98;7.63;;;11.20;16.50;;;;;;5031390;28;20394;-77
2021/03/31 03:46:33;;;;;;;11.82;7.55;;;11.20;16.50;;;;;;5030547;28;20414;-77
2021/03/31 03:49:00;;;;;;;17.13;7.95;;;11.20;17.00;;;;;;5032187;28;20402;-77
2021/03/31 03:51:27;;;;;;;13.93;7.22;;;11.20;16.20;;;;;;5028175;28;20403;-77
2021/03/31 03:53:53;;;;;;;17.45;8.07;;;11.10;16.40;;;;;;5025137;28;20406;-77
2021/03/31 03:56:20;;;;;;;15.98;7.45;;;11.10;16.10;;;;;;5027863;28;20403;-80
2021/03/31 03:58:45;;;;;;;15.67;8.07;;;11.10;16.50;;;;;;5039342;28;20977;-77
2021/03/31 04:01:11;;;;;;;15.93;7.70;;;11.10;16.00;;;;;;5030214;28;20387;-77
2021/03/31 04:03:36;;;;;;;13.77;8.00;;;11.00;16.30;;;;;;5032111;28;20807;-77
2021/03/31 04:06:02;;;;;;;18.30;7.73;;;11.00;16.80;;;;;;5031046;28;20464;-77
2021/03/31 04:08:28;;;;;;;13.05;7.75;;;10.90;16.60;;;;;;5030473;28;20395;-77
2021/03/31 04:10:57;;;;;;;15.57;8.00;;;10.90;17.00;;;;;;5031602;28;20410;-79
2021/03/31 04:13:23;;;;;;;13.43;7.32;;;10.80;17.10;;;;;;5031827;28;20375;-77
2021/03/31 04:15:53;;;;;;;14.80;7.80;;;10.70;17.40;;;;;;5032323;28;20434;-79
2021/03/31 04:18:20;;;;;;;12.70;7.30;;;10.80;17.20;;;;;;5031832;28;20451;-78
2021/03/31 04:20:48;;;;;;;14.10;7.90;;;10.80;17.50;;;;;;5021902;28;20407;-78
2021/03/31 04:23:14;;;;;;;12.52;7.43;;;10.70;17.80;;;;;;5037226;28;20401;-76
2021/03/31 04:25:40;;;;;;;13.70;8.02;;;10.60;17.50;;;;;;5036064;28;20499;-77
2021/03/31 04:28:09;;;;;;;11.90;7.65;;;10.60;17.60;;;;;;5021589;28;20389;-78
2021/03/31 04:30:36;;;;;;;15.63;8.10;;;10.60;17.40;;;;;;5016056;28;20434;-77
2021/03/31 04:33:02;;;;;;;16.00;8.52;;;10.50;17.70;;;;;;5014235;28;20391;-77
2021/03/31 04:35:28;;;;;;;17.00;8.13;;;10.50;18.40;;;;;;5035175;28;20462;-76
2021/03/31 04:38:07;;;;;;;14.43;7.75;;;10.60;18.40;;;;;;5036991;28;20398;-78
2021/03/31 04:40:52;;;;;;;14.60;8.20;;;10.70;17.20;;;;;;5037654;28;20391;-79
2021/03/31 04:43:20;;;;;;;18.15;8.23;;;10.70;17.50;;;;;;5040158;28;20379;-78
2021/03/31 04:45:45;;;;;;;12.07;7.45;;;10.60;17.70;;;;;;5041571;28;20414;-78
2021/03/31 04:48:11;;;;;;;15.35;8.25;;;10.70;17.10;;;;;;5042722;28;20379;-79
2021/03/31 04:50:37;;;;;;;15.38;7.68;;;10.70;16.90;;;;;;5020286;28;20411;-77
2021/03/31 04:53:03;;;;;;;12.70;7.93;;;10.70;17.60;;;;;;5016235;28;20400;-77
2021/03/31 04:55:28;;;;;;;12.97;7.80;;;10.70;17.00;;;;;;5014633;28;20750;-78
2021/03/31 04:57:54;;;;;;;12.60;7.43;;;10.70;17.50;;;;;;5031771;28;20408;-78
2021/03/31 05:00:20;;;;;;;14.27;7.70;;;10.70;17.80;;;;;;5055905;28;20420;-80
2021/03/31 05:02:45;;;;;;;14.40;7.57;;;10.60;17.40;;;;;;5023867;28;20409;-74
2021/03/31 05:05:12;;;;;;;14.43;8.17;;;10.70;17.50;;;;;;5033233;28;20768;-74
2021/03/31 05:07:37;;;;;;;13.75;7.78;;;10.70;17.70;;;;;;5033938;28;20441;-74
2021/03/31 05:10:03;;;;;;;14.47;7.90;;;10.70;17.80;;;;;;5033909;28;20394;-75
2021/03/31 05:12:29;;;;;;;18.15;8.32;;;10.80;17.90;;;;;;5042112;28;20387;-73
2021/03/31 05:14:56;;;;;;;15.93;7.93;;;10.80;16.80;;;;;;5045538;28;20454;-73
2021/03/31 05:17:22;;;;;;;16.90;8.55;;;10.90;17.00;;;;;;5036685;28;20410;-74
2021/03/31 05:19:48;;;;;;;17.10;8.07;;;10.80;17.40;;;;;;5046306;28;20428;-73
2021/03/31 05:22:14;;;;;;;14.00;8.30;;;10.80;17.00;;;;;;5040681;28;20395;-73
2021/03/31 05:24:39;;;;;;;15.43;8.77;;;10.80;17.80;;;;;;5033439;28;20417;-73
2021/03/31 05:27:05;;;;;;;15.20;8.50;;;10.80;17.70;;;;;;5032237;28;20467;-73
2021/03/31 05:29:31;;;;;;;20.50;8.07;;;10.80;17.70;;;;;;5033278;28;20388;-74
2021/03/31 05:31:58;;;;;;;13.20;8.13;;;10.80;17.40;;;;;;5032047;28;20379;-73
2021/03/31 05:34:23;;;;;;;13.23;7.85;;;10.80;17.30;;;;;;5033240;28;20467;-73
2021/03/31 05:36:49;;;;;;;21.40;9.43;;;10.90;16.90;;;;;;5033152;28;20486;-73
2021/03/31 05:39:15;;;;;;;14.93;8.33;;;10.90;17.00;;;;;;5032692;28;20819;-74
2021/03/31 05:41:40;;;;;;;18.07;7.93;;;10.90;17.20;;;;;;5031860;28;20399;-75
2021/03/31 05:44:08;;;;;;;20.20;8.83;;;10.90;17.30;;;;;;5033117;28;20408;-74
2021/03/31 05:46:36;;;;;;;15.88;8.35;;;11.00;17.00;;;;;;5032550;28;20399;-75
2021/03/31 05:49:02;;;;;;;16.85;8.65;;;11.00;16.90;;;;;;5021447;28;20403;-75
2021/03/31 05:51:27;;;;;;;15.93;7.90;;;11.10;16.80;;;;;;5032817;28;20402;-75
2021/03/31 05:53:53;;;;;;;15.73;8.00;;;11.10;17.10;;;;;;5032511;28;20857;-75
2021/03/31 05:56:20;;;;;;;13.55;8.30;;;11.10;16.60;;;;;;5032457;28;20474;-75
2021/03/31 05:58:45;;;;;;;18.77;9.13;;;11.20;17.00;;;;;;5032921;28;20742;-74
2021/03/31 06:01:11;;;;;;;17.47;9.17;;;11.20;16.50;;;;;;5032411;28;20465;-75
2021/03/31 06:03:37;;;;;;;17.77;8.73;;;11.10;17.10;;;;;;5031212;28;20771;-75
2021/03/31 06:06:03;;;;;;;19.05;8.70;;;11.20;16.70;;;;;;5032760;28;20746;-74
2021/03/31 06:08:29;;;;;;;18.85;8.98;;;11.30;16.20;;;;;;5032645;28;20791;-74
2021/03/31 06:10:59;;;;;;;17.57;8.87;;;11.40;16.30;;;;;;5031827;28;20408;-75
2021/03/31 06:13:25;;;;;;;18.15;9.25;;;11.40;16.10;;;;;;5032762;28;20383;-75
2021/03/31 06:15:51;;;;;;;13.75;8.50;;;11.50;16.20;;;;;;5032966;28;20465;-74
2021/03/31 06:18:18;;;;;;;16.00;8.50;;;11.50;16.40;;;;;;5032626;28;20387;-74
2021/03/31 06:20:55;;;;;;;17.65;9.82;;;11.60;16.30;;;;;;5018910;28;20715;-74
2021/03/31 06:26:23;;;;;;;17.20;9.02;;;11.70;16.30;;;;;;5012586;28;20420;-74
2021/03/31 06:29:02;;;;;;;15.10;9.18;;;11.80;16.20;;;;;;5012271;28;20396;-74
2021/03/31 06:31:48;;;;;;;14.60;8.70;;;11.80;16.30;;;;;;5012895;28;20844;-74
2021/03/31 06:34:21;;;;;;;16.35;9.50;;;12.00;15.90;;;;;;5026269;28;20405;-74
2021/03/31 06:37:08;;;;;;;13.73;8.77;;;12.00;15.40;;;;;;5031644;28;20453;-74
2021/03/31 06:39:35;;;;;;;17.20;9.40;;;12.10;15.80;;;;;;5033789;28;20499;-75
2021/03/31 06:42:12;;;;;;;15.45;8.75;;;12.40;14.70;;;;;;5033755;28;20399;-75
2021/03/31 06:50:03;;;;;;;26.83;11.60;;;12.70;14.50;;;;;;5031337;28;20399;-74
2021/03/31 06:52:30;;;;;;;20.55;9.60;;;12.90;14.50;;;;;;5032055;28;20426;-77
2021/03/31 06:54:59;;;;;;;20.05;10.20;;;13.00;13.50;;;;;;5030222;28;20429;-75
2021/03/31 06:57:26;;;;;;;22.45;10.00;;;13.10;13.00;;;;;;5035331;28;20419;-75
2021/03/31 07:00:06;;;;;;;19.70;9.20;;;13.20;12.60;;;;;;5031888;28;20394;-75
2021/03/31 07:02:34;;;;;;;24.10;10.13;;;13.30;12.10;;;;;;5046435;28;20399;-76
2021/03/31 07:05:00;;;;;;;21.05;8.77;;;13.50;12.60;;;;;;5049684;28;20399;-74
2021/03/31 07:07:37;;;;;;;20.50;9.20;;;13.60;11.60;;;;;;5046282;28;20475;-76
2021/03/31 07:10:03;;;;;;;17.42;9.20;;;13.80;11.20;;;;;;5029173;28;20392;-77
2021/03/31 07:12:40;;;;;;;15.52;8.45;;;13.80;11.20;;;;;;5030648;28;20414;-75
2021/03/31 07:15:07;;;;;;;19.42;8.90;;;13.90;11.80;;;;;;5032660;28;20844;-77
2021/03/31 07:17:33;;;;;;;18.80;9.60;;;14.00;11.10;;;;;;5036723;28;20955;-76
2021/03/31 07:20:00;;;;;;;16.75;9.20;;;14.10;10.50;;;;;;5032866;28;20453;-77
2021/03/31 07:22:26;;;;;;;18.95;9.50;;;14.20;10.10;;;;;;5030066;28;20817;-81
2021/03/31 07:24:54;;;;;;;19.00;9.35;;;14.30;10.00;;;;;;5032544;28;20496;-76
2021/03/31 07:27:24;;;;;;;22.40;10.00;;;14.40;10.30;;;;;;5033001;28;20452;-78
2021/03/31 07:32:39;;;;;;;21.20;9.82;;;14.60;9.60;;;;;;5040246;28;20390;-79
2021/03/31 07:35:06;;;;;;;16.92;10.05;;;14.70;9.90;;;;;;5040950;28;20906;-79
2021/03/31 07:37:32;;;;;;;17.30;9.68;;;14.80;10.10;;;;;;5033899;28;20486;-78
2021/03/31 07:40:04;;;;;;;19.00;9.77;;;14.90;10.30;;;;;;5032289;28;20391;-78
2021/03/31 07:42:31;;;;;;;20.07;9.60;;;14.90;9.50;;;;;;5028451;28;20406;-78
2021/03/31 07:45:00;;;;;;;23.73;10.18;;;15.20;9.70;;;;;;5033673;28;20406;-78
2021/03/31 07:47:27;;;;;;;19.63;9.73;;;15.20;9.40;;;;;;5034106;28;20906;-78
2021/03/31 07:49:54;;;;;;;17.45;9.70;;;15.30;9.30;;;;;;5032172;28;20421;-77
2021/03/31 07:52:20;;;;;;;25.47;10.50;;;15.40;8.80;;;;;;5034212;28;20406;-77
2021/03/31 07:54:46;;;;;;;18.77;9.70;;;15.60;8.60;;;;;;5038087;28;20752;-78
2021/03/31 07:57:25;;;;;;;21.47;9.90;;;15.80;8.00;;;;;;5036968;28;21385;-77
2021/03/31 07:59:51;;;;;;;22.58;10.30;;;15.90;8.10;;;;;;5035797;28;20399;-77
2021/03/31 08:02:17;;;;;;;16.47;9.47;;;16.00;6.90;;;;;;5038318;28;20576;-77
2021/03/31 08:04:43;;;;;;;19.53;10.13;;;16.10;7.00;;;;;;5034213;28;20476;-77
2021/03/31 08:07:31;;;;;;;20.07;10.60;;;16.20;6.50;;;;;;5034187;28;20399;-77
2021/03/31 08:10:35;;;;;;;18.60;10.13;;;16.30;6.20;;;;;;5047324;28;20391;-77
2021/03/31 08:13:26;;;;;;;22.25;12.82;;;16.50;6.50;;;;;;5043831;28;20462;-78
2021/03/31 08:15:52;;;;;;;27.25;11.27;;;16.60;5.40;;;;;;5024019;28;20409;-78
2021/03/31 08:18:18;;;;;;;20.07;10.60;;;16.70;5.00;;;;;;5045187;28;20408;-74
2021/03/31 08:20:45;;;;;;;22.02;10.40;;;16.90;5.40;;;;;;5046548;28;20417;-79
2021/03/31 08:23:11;;;;;;;19.92;11.35;;;16.90;4.70;;;;;;5044583;28;20403;-76
2021/03/31 08:25:37;;;;;;;20.63;11.13;;;17.00;4.80;;;;;;5037391;28;20467;-74
2021/03/31 08:28:07;;;;;;;22.65;9.75;;;17.10;4.90;;;;;;5039656;28;20389;-73
2021/03/31 08:30:36;;;;;;;18.52;10.18;;;17.20;4.50;;;;;;5039853;28;20399;-76
2021/03/31 08:33:03;;;;;;;22.95;10.23;;;17.30;4.40;;;;;;5033670;28;20486;-76
2021/03/31 08:35:30;;;;;;;18.25;10.13;;;17.40;3.80;;;;;;5034408;28;20402;-75
2021/03/31 08:37:57;;;;;;;24.80;10.68;;;17.50;4.40;;;;;;5034607;28;20755;-75
2021/03/31 08:40:29;;;;;;;18.70;10.80;;;17.50;3.70;;;;;;5033354;28;20405;-73
2021/03/31 08:42:58;;;;;;;19.65;10.40;;;17.60;3.60;;;;;;5034100;28;20814;-73
2021/03/31 08:45:27;;;;;;;20.50;10.95;;;17.70;3.60;;;;;;5034767;28;20437;-76
2021/03/31 08:47:53;;;;;;;18.40;9.88;;;17.80;3.80;;;;;;5031651;28;20403;-72
2021/03/31 08:50:29;;;;;;;18.88;10.10;;;17.90;3.80;;;;;;5033412;28;20383;-75
2021/03/31 08:53:00;;;;;;;21.25;10.98;;;18.00;4.20;;;;;;5035030;28;20387;-75
2021/03/31 08:55:30;;;;;;;20.65;11.30;;;18.10;3.20;;;;;;5034052;28;20400;-76
2021/03/31 08:57:56;;;;;;;20.00;11.18;;;18.30;1.80;;;;;;5033417;28;20682;-75
2021/03/31 09:00:22;;;;;;;19.92;11.60;;;18.30;2.70;;;;;;5040521;28;20392;-73
2021/03/31 09:02:47;;;;;;;23.48;11.10;;;18.40;3.00;;;;;;5049805;28;20437;-77
2021/03/31 09:05:14;;;;;;;22.63;11.30;;;18.50;1.90;;;;;;5041300;28;20449;-76
2021/03/31 09:07:40;;;;;;;24.35;11.40;;;18.60;1.80;;;;;;5042920;28;20386;-77
2021/03/31 09:10:11;;;;;;;25.30;11.70;;;18.70;1.50;;;;;;5048700;28;20478;-79
2021/03/31 09:12:37;;;;;;;23.42;11.98;;;18.70;2.00;;;;;;5044766;28;20472;-77
2021/03/31 09:15:04;;;;;;;29.70;10.63;;;18.70;1.60;;;;;;5034660;28;20407;-77
2021/03/31 09:17:31;;;;;;;23.70;11.32;;;18.90;1.60;;;;;;5036380;28;20760;-78
2021/03/31 09:19:59;;;;;;;23.98;11.35;;;19.00;1.30;;;;;;5025838;28;20400;-77
2021/03/31 09:22:28;;;;;;;23.10;11.57;;;19.10;1.30;;;;;;5045625;28;20398;-77
2021/03/31 09:24:57;;;;;;;20.77;11.00;;;19.10;1.50;;;;;;5040070;28;20401;-77
2021/03/31 09:27:29;;;;;;;22.63;11.10;;;19.20;1.00;;;;;;5067961;28;20480;-77
2021/03/31 09:29:56;;;;;;;22.50;11.73;;;19.30;1.00;;;;;;5052011;28;20443;-77
2021/03/31 09:33:12;;;;;;;22.88;11.43;;;19.30;1.00;;;;;;5046084;28;20397;-77
2021/03/31 09:35:14;;;;;;;18.98;10.50;;;19.50;1.00;;;;;;5031645;28;20402;-76
2021/03/31 09:37:41;;;;;;;22.52;11.48;;;19.60;1.00;;;;;;5032514;28;20387;-77
2021/03/31 09:40:08;;;;;;;28.33;11.00;;;19.70;1.00;;;;;;5037496;28;20397;-77
2021/03/31 09:42:38;;;;;;;23.83;11.70;;;19.70;1.00;;;;;;5053015;28;20480;-77
2021/03/31 09:45:08;;;;;;;25.10;11.38;;;19.80;1.00;;;;;;5052257;28;20890;-76
2021/03/31 09:47:37;;;;;;;22.30;11.35;;;19.90;1.00;;;;;;5054272;28;20863;-77
2021/03/31 09:50:06;;;;;;;23.40;10.70;;;19.90;1.00;;;;;;5053517;28;20397;-78
2021/03/31 09:52:32;;;;;;;19.23;10.70;;;20.00;1.00;;;;;;5053956;28;20385;-77
2021/03/31 09:55:14;;;;;;;22.40;10.67;;;20.00;1.00;;;;;;5049317;28;20733;-76
2021/03/31 09:57:41;;;;;;;18.92;10.13;;;20.10;1.00;;;;;;5041106;28;20523;-75
2021/03/31 10:00:09;;;;;;;19.27;10.98;;;20.20;1.00;;;;;;5030918;28;20414;-77
2021/03/31 10:02:36;;;;;;;20.45;9.80;;;20.40;1.00;;;;;;5032889;28;20391;-76
2021/03/31 10:05:11;;;;;;;24.05;10.30;;;20.50;1.00;;;;;;5038702;28;20941;-78
2021/03/31 10:07:36;;;;;;;20.08;10.07;;;20.60;1.00;;;;;;5034832;28;20399;-77
2021/03/31 10:10:04;;;;;;;20.27;10.30;;;20.70;1.00;;;;;;5032632;28;20387;-76
2021/03/31 10:12:32;;;;;;;16.63;9.75;;;20.70;1.00;;;;;;5032407;28;20391;-76
2021/03/31 10:15:00;;;;;;;24.45;10.27;;;20.70;1.00;;;;;;5036948;28;20422;-78
2021/03/31 10:17:28;;;;;;;20.48;10.15;;;20.70;1.00;;;;;;5049671;28;20475;-77
2021/03/31 10:20:05;;;;;;;17.25;9.25;;;20.80;1.00;;;;;;5044498;28;20413;-76
2021/03/31 10:22:30;;;;;;;22.35;9.88;;;20.80;1.00;;;;;;5047925;28;20471;-72
2021/03/31 10:24:56;;;;;;;17.57;9.03;;;21.00;1.00;;;;;;5038243;28;20410;-74
2021/03/31 10:27:43;;;;;;;17.48;8.82;;;21.10;1.00;;;;;;5034114;28;20475;-75
2021/03/31 10:30:22;;;;;;;13.60;8.65;;;21.10;1.00;;;;;;5044834;28;20811;-73
2021/03/31 10:32:49;;;;;;;11.10;6.35;;;21.30;1.00;;;;;;5033038;28;20463;-75
2021/03/31 10:35:15;;;;;;;15.48;7.40;;;21.30;1.00;;;;;;5034461;28;20391;-75
2021/03/31 10:37:55;;;;;;;18.63;8.32;;;21.40;1.00;;;;;;5039182;28;20398;-76
2021/03/31 10:40:39;;;;;;;13.52;7.32;;;21.40;1.00;;;;;;5036238;28;20527;-76
2021/03/31 10:56:27;;;;;;;17.08;6.97;;;21.90;1.00;;;;;;5032305;28;20395;-75
2021/03/31 10:58:59;;;;;;;11.38;6.85;;;22.00;1.00;;;;;;5038893;28;20406;-74
2021/03/31 11:01:25;;;;;;;38.60;9.60;;;22.10;1.00;;;;;;5030525;28;20768;-75
2021/03/31 11:03:51;;;;;;;25.55;9.75;;;22.00;1.00;;;;;;5031854;28;20866;-76
2021/03/31 11:06:17;;;;;;;15.93;8.60;;;22.10;1.00;;;;;;5030864;28;20446;-75
2021/03/31 11:08:43;;;;;;;17.52;8.02;;;22.10;1.00;;;;;;5031479;28;20383;-75
2021/03/31 11:11:09;;;;;;;17.50;7.78;;;22.20;1.00;;;;;;5025876;28;20900;-74
2021/03/31 11:13:36;;;;;;;17.33;7.80;;;22.10;1.00;;;;;;5024864;28;20414;-74
2021/03/31 11:16:06;;;;;;;16.65;8.00;;;22.20;1.00;;;;;;5022270;28;20457;-75
2021/03/31 11:18:46;;;;;;;15.88;8.98;;;22.20;1.00;;;;;;5026622;28;20892;-75
2021/03/31 11:26:39;;;;;;;16.65;8.20;;;22.60;1.00;;;;;;5021269;28;20436;-78
2021/03/31 11:29:05;;;;;;;15.00;8.30;;;22.80;1.00;;;;;;5033013;28;20765;-78
2021/03/31 11:31:30;;;;;;;21.47;8.03;;;22.90;1.00;;;;;;5034059;28;20398;-77
2021/03/31 11:33:56;;;;;;;11.43;7.10;;;22.90;1.00;;;;;;5032182;28;20434;-77
2021/03/31 11:36:22;;;;;;;18.95;7.72;;;22.90;1.00;;;;;;5036619;28;20474;-78
2021/03/31 11:38:47;;;;;;;17.17;7.53;;;22.90;1.00;;;;;;5036794;28;20410;-79
2021/03/31 11:41:13;;;;;;;17.90;8.20;;;23.10;1.00;;;;;;5038354;28;20403;-76
2021/03/31 11:43:39;;;;;;;25.90;9.48;;;23.10;1.00;;;;;;5025372;28;20494;-78
2021/03/31 11:46:04;;;;;;;20.40;9.73;;;23.40;1.00;;;;;;5031385;28;20413;-79
2021/03/31 11:48:30;;;;;;;17.57;8.70;;;23.40;1.00;;;;;;5038585;28;20391;-79
2021/03/31 11:50:56;;;;;;;11.50;7.57;;;23.40;1.00;;;;;;5033890;28;20394;-79
2021/03/31 11:53:22;;;;;;;14.07;7.38;;;23.50;1.00;;;;;;5034988;28;20395;-78
2021/03/31 11:55:47;;;;;;;17.03;8.17;;;23.60;1.00;;;;;;5032777;28;20395;-79
2021/03/31 11:58:13;;;;;;;14.23;7.90;;;23.60;1.00;;;;;;5037433;28;20476;-78
2021/03/31 12:00:39;;;;;;;24.83;7.95;;;23.60;1.00;;;;;;5032310;28;20449;-78
2021/03/31 12:03:06;;;;;;;15.75;7.03;;;23.70;1.00;;;;;;5034557;28;20417;-77
2021/03/31 12:05:32;;;;;;;19.48;7.20;;;23.80;1.00;;;;;;5029379;28;20934;-78
2021/03/31 12:07:57;;;;;;;16.65;7.43;;;23.80;1.00;;;;;;5030711;28;20904;-78
2021/03/31 12:10:23;;;;;;;10.13;6.40;;;23.90;1.00;;;;;;5027381;28;20429;-77
2021/03/31 12:12:49;;;;;;;10.60;6.03;;;23.90;1.00;;;;;;5026678;28;20414;-77
2021/03/31 12:15:15;;;;;;;15.68;6.78;;;23.90;1.00;;;;;;5042847;28;20978;-78
2021/03/31 12:17:43;;;;;;;10.70;6.65;;;24.00;1.00;;;;;;5022861;28;20404;-78
2021/03/31 12:20:12;;;;;;;12.03;6.33;;;24.10;1.00;;;;;;5029461;28;20410;-78
2021/03/31 12:22:38;;;;;;;15.70;6.20;;;24.10;1.00;;;;;;5033850;28;20398;-77
2021/03/31 12:25:06;;;;;;;11.05;6.40;;;24.00;1.00;;;;;;5024700;28;20444;-78
2021/03/31 12:27:33;;;;;;;14.70;6.30;;;24.00;1.00;;;;;;5026010;28;20830;-78
2021/03/31 12:30:04;;;;;;;10.80;5.35;;;24.00;1.00;;;;;;5035506;28;20410;-78
2021/03/31 12:32:29;;;;;;;6.32;5.20;;;24.10;1.00;;;;;;5051182;23;20443;-78
2021/03/31 12:34:55;;;;;;;11.10;5.00;;;24.20;1.00;;;;;;5054667;22;20438;-78
2021/03/31 12:37:22;;;;;;;9.00;4.73;;;24.20;1.00;;;;;;5042575;28;20406;-78
2021/03/31 12:39:48;;;;;;;9.03;5.60;;;24.40;1.00;;;;;;5026083;28;20489;-77
2021/03/31 12:42:14;;;;;;;12.13;5.43;;;24.50;1.00;;;;;;5026259;28;20820;-79
2021/03/31 12:44:39;;;;;;;7.80;4.80;;;24.50;1.00;;;;;;5029202;28;20441;-78
2021/03/31 12:47:06;;;;;;;9.53;5.10;;;24.50;1.00;;;;;;5036748;28;20415;-77
2021/03/31 12:49:31;;;;;;;8.77;4.80;;;24.50;1.00;;;;;;5044297;22;20454;-75
2021/03/31 12:52:05;;;;;;;9.40;4.50;;;24.60;1.00;;;;;;5013795;28;20833;-74
2021/03/31 12:55:18;;;;;;;10.18;3.40;;;24.60;1.00;;;;;;5009988;28;20409;-75
2021/03/31 12:57:17;;;;;;;3.50;3.20;;;24.70;1.00;;;;;;4996096;28;20404;-73
2021/03/31 12:59:42;;;;;;;6.70;3.00;;;24.80;1.00;;;;;;5030359;28;20379;-75
2021/03/31 13:02:09;;;;;;;5.77;3.43;;;24.80;1.00;;;;;;5028242;28;20761;-74
2021/03/31 13:04:35;;;;;;;7.05;3.50;;;24.70;1.00;;;;;;5021056;28;20406;-75
2021/03/31 13:07:01;;;;;;;7.57;4.40;;;24.80;1.00;;;;;;5010781;28;20769;-72
2021/03/31 13:09:28;;;;;;;7.40;4.00;;;24.80;1.00;;;;;;5008075;28;20401;-74
2021/03/31 13:11:54;;;;;;;6.60;3.57;;;24.90;1.00;;;;;;5000603;28;20875;-74
2021/03/31 13:24:46;;;;;;;7.75;4.10;;;24.90;1.00;;;;;;5013097;28;20416;-76
2021/03/31 13:32:41;;;;;;;5.30;3.60;;;24.90;1.00;;;;;;5012941;28;20874;-75